Time;durP1;ratioP1;P1;durP2;ratioP2;P2;SDS_P1;SDS_P2;PMS_P1;PMS_P2;Temp;Humidity;BMP_temperature;BMP_pressure;BME280_temperature;BME280_humidity;BME280_pressure;Samples;Min_cycle;Max_cycle;Signal;HPM_P1;HPM_P2
2023/02/01 00:01:19;;;;;;;6.70;3.00;;;;;;;14.38;45.96;100233.56;5112563;28;20123;-59
2023/02/01 00:03:47;;;;;;;8.35;3.17;;;;;;;14.36;45.84;100246.25;5112331;28;20043;-59
2023/02/01 00:06:15;;;;;;;9.15;3.42;;;;;;;14.31;46.44;100238.56;5112480;28;20455;-58
2023/02/01 00:08:43;;;;;;;10.77;3.33;;;;;;;14.29;46.33;100230.63;5112270;28;20092;-60
2023/02/01 00:11:14;;;;;;;9.45;3.17;;;;;;;14.24;46.25;100227.41;5112619;28;20044;-59
2023/02/01 00:13:43;;;;;;;10.95;3.20;;;;;;;14.23;46.30;100236.44;5112425;28;20043;-59
2023/02/01 00:16:14;;;;;;;8.50;2.88;;;;;;;14.21;46.63;100233.03;5112413;28;20039;-58
2023/02/01 00:18:42;;;;;;;7.97;3.10;;;;;;;14.18;46.66;100227.03;5112374;28;20044;-58
2023/02/01 00:21:12;;;;;;;7.20;2.72;;;;;;;14.15;46.75;100228.13;5112337;28;20104;-58
2023/02/01 00:23:40;;;;;;;9.05;3.35;;;;;;;14.14;46.86;100242.50;5112082;28;20484;-59
2023/02/01 00:26:14;;;;;;;10.98;3.53;;;;;;;14.09;46.79;100220.56;5112285;28;20044;-59
2023/02/01 00:28:43;;;;;;;7.60;3.05;;;;;;;14.10;47.20;100242.84;5112240;28;20446;-59
2023/02/01 00:31:11;;;;;;;8.35;3.17;;;;;;;14.08;47.21;100239.41;5112133;28;20043;-59
2023/02/01 00:33:40;;;;;;;7.60;2.88;;;;;;;14.05;46.99;100243.19;5112012;28;20481;-60
2023/02/01 00:36:10;;;;;;;7.28;2.88;;;;;;;14.00;47.09;100234.66;5112277;28;20504;-59
2023/02/01 00:38:41;;;;;;;8.93;3.20;;;;;;;13.99;47.18;100240.94;5112398;28;20126;-60
2023/02/01 00:41:12;;;;;;;8.93;2.95;;;;;;;13.96;47.00;100243.88;5112074;28;20040;-60
2023/02/01 00:43:42;;;;;;;9.10;2.90;;;;;;;13.94;47.03;100235.94;5111886;28;20040;-60
2023/02/01 00:46:11;;;;;;;8.88;2.92;;;;;;;13.90;47.19;100223.75;5111974;28;20051;-60
2023/02/01 00:48:40;;;;;;;7.25;3.05;;;;;;;13.91;47.63;100224.59;5112016;28;20507;-59
2023/02/01 00:51:11;;;;;;;8.52;2.72;;;;;;;13.89;47.43;100226.50;5112169;28;20078;-59
2023/02/01 00:53:39;;;;;;;8.38;2.80;;;;;;;13.86;47.08;100232.13;5112093;28;20081;-59
2023/02/01 00:56:08;;;;;;;7.93;2.78;;;;;;;13.84;47.15;100231.38;5111912;28;20046;-59
2023/02/01 00:58:36;;;;;;;7.47;2.97;;;;;;;13.81;47.08;100226.25;5113122;28;20053;-59
2023/02/01 01:01:08;;;;;;;6.40;2.50;;;;;;;13.80;47.01;100243.28;5116010;28;20047;-59
2023/02/01 01:03:38;;;;;;;5.97;2.30;;;;;;;13.78;47.20;100239.88;5115944;28;20047;-59
2023/02/01 01:06:08;;;;;;;6.57;2.72;;;;;;;13.75;47.46;100228.41;5116443;28;20047;-59
2023/02/01 01:08:37;;;;;;;7.30;2.80;;;;;;;13.73;47.39;100222.31;5115769;28;20060;-59
2023/02/01 01:11:06;;;;;;;6.07;2.33;;;;;;;13.71;47.42;100218.03;5115774;28;20075;-60
2023/02/01 01:13:35;;;;;;;6.78;2.50;;;;;;;13.70;46.94;100206.47;5115740;28;20050;-59
2023/02/01 01:16:04;;;;;;;5.35;2.28;;;;;;;13.68;47.30;100208.38;5115683;28;20075;-59
2023/02/01 01:18:34;;;;;;;6.50;2.60;;;;;;;13.66;47.20;100194.22;5115584;28;20480;-59
2023/02/01 01:21:04;;;;;;;6.78;2.63;;;;;;;13.64;47.43;100188.13;5115620;28;20047;-60
2023/02/01 01:23:32;;;;;;;9.27;3.03;;;;;;;13.59;47.65;100176.88;5115385;28;20047;-59
2023/02/01 01:26:01;;;;;;;6.45;2.30;;;;;;;13.63;46.99;100182.91;5115372;28;20138;-58
2023/02/01 01:28:29;;;;;;;6.30;2.70;;;;;;;13.61;47.07;100176.81;5115384;28;20453;-59
2023/02/01 01:30:57;;;;;;;5.45;2.40;;;;;;;13.59;47.10;100173.34;5115366;28;20096;-58
2023/02/01 01:33:26;;;;;;;6.35;2.38;;;;;;;13.57;46.93;100177.97;5115354;28;20039;-59
2023/02/01 01:35:56;;;;;;;5.30;2.40;;;;;;;13.57;47.08;100173.47;5115230;28;20044;-58
2023/02/01 01:38:25;;;;;;;6.88;2.88;;;;;;;13.56;47.17;100174.44;5115395;28;20040;-60
2023/02/01 01:40:53;;;;;;;5.03;2.28;;;;;;;13.55;47.41;100167.38;5115148;28;20047;-60
2023/02/01 01:43:22;;;;;;;8.07;2.58;;;;;;;13.53;47.37;100163.97;5115246;28;20562;-58
2023/02/01 01:45:51;;;;;;;6.30;2.63;;;;;;;13.52;47.05;100164.94;5115007;28;20446;-60
2023/02/01 01:48:25;;;;;;;6.57;2.30;;;;;;;13.49;47.70;100175.84;5115041;28;20076;-59
2023/02/01 01:50:59;;;;;;;6.63;2.45;;;;;;;13.49;47.54;100175.00;5115119;28;20040;-59
2023/02/01 01:53:32;;;;;;;5.13;2.20;;;;;;;13.49;47.42;100175.84;5115035;28;20126;-59
2023/02/01 01:56:01;;;;;;;;;;;;;;;13.49;47.32;100175.00;5115505;28;20146;-60
2023/02/01 01:58:32;;;;;;;6.20;2.40;;;;;;;13.47;47.22;100164.41;5114913;28;19920;-59
2023/02/01 02:01:01;;;;;;;5.13;2.22;;;;;;;13.46;46.91;100160.00;5114698;28;20096;-60
2023/02/01 02:03:34;;;;;;;5.65;2.60;;;;;;;13.44;47.25;100161.97;5114532;28;20055;-60
2023/02/01 02:06:07;;;;;;;5.53;2.22;;;;;;;13.40;47.10;100155.09;5114711;28;20079;-59
2023/02/01 02:08:35;;;;;;;5.80;2.40;;;;;;;13.44;47.23;100153.91;5114536;28;20104;-60
2023/02/01 02:11:03;;;;;;;4.78;2.08;;;;;;;13.42;47.78;100155.88;5113462;28;20492;-60
2023/02/01 02:13:35;;;;;;;5.65;2.20;;;;;;;13.42;47.05;100161.22;5114434;28;20047;-60
2023/02/01 02:16:26;;;;;;;6.10;2.30;;;;;;;13.39;47.44;100156.91;5114564;28;20047;-60
2023/02/01 02:19:18;;;;;;;5.97;2.22;;;;;;;13.38;47.08;100157.88;5114464;28;20055;-60
2023/02/01 02:22:06;;;;;;;6.45;2.22;;;;;;;13.38;47.30;100157.88;5114390;28;20058;-59
2023/02/01 02:25:28;;;;;;;5.10;2.08;;;;;;;13.35;46.52;100163.47;5114308;28;20554;-60
2023/02/01 02:28:07;;;;;;;6.97;2.00;;;;;;;13.34;46.94;100155.56;5024288;28;20053;-58
2023/02/01 02:30:46;;;;;;;6.28;2.30;;;;;;;13.32;47.72;100152.16;5031389;28;20050;-58
2023/02/01 02:33:40;;;;;;;6.80;2.10;;;;;;;13.31;47.54;100155.75;5081255;28;20048;-58
2023/02/01 02:36:14;;;;;;;4.80;2.05;;;;;;;13.31;46.94;100151.25;5114211;28;20071;-60
2023/02/01 02:38:48;;;;;;;3.38;1.70;;;;;;;13.31;47.32;100150.41;5113998;28;20047;-60
2023/02/01 02:47:27;;;;;;;4.68;1.90;;;;;;;13.26;47.18;100147.22;5113838;28;20085;-60
2023/02/01 02:55:47;;;;;;;6.05;1.90;;;;;;;13.22;47.26;100146.59;5113749;28;20104;-60
2023/02/01 03:04:09;;;;;;;3.20;1.60;;;;;;;13.20;47.69;100137.81;5113509;28;20039;-61
2023/02/01 03:06:39;;;;;;;4.13;2.10;;;;;;;13.18;47.62;100137.88;5113652;28;20138;-60
2023/02/01 03:09:14;;;;;;;5.18;2.17;;;;;;;13.15;47.83;100129.22;5113408;28;20051;-60
2023/02/01 03:14:35;;;;;;;4.68;1.92;;;;;;;13.15;47.65;100127.41;5113350;28;20075;-59
2023/02/01 03:17:09;;;;;;;4.97;1.95;;;;;;;13.15;48.06;100137.25;5113358;28;20535;-58
2023/02/01 03:19:48;;;;;;;3.80;1.65;;;;;;;13.11;47.76;100125.03;5113241;28;20039;-59
2023/02/01 03:22:22;;;;;;;4.88;1.85;;;;;;;13.09;47.07;100121.63;5113557;28;20047;-59
2023/02/01 03:24:54;;;;;;;3.85;1.73;;;;;;;13.11;47.25;100123.22;5113122;28;20070;-59
2023/02/01 03:27:28;;;;;;;3.42;1.70;;;;;;;13.09;47.16;100125.16;5113217;28;20039;-59
2023/02/01 03:30:03;;;;;;;3.40;1.83;;;;;;;13.09;47.38;100117.13;5113057;28;20114;-60
2023/02/01 03:32:58;;;;;;;3.63;1.60;;;;;;;13.08;47.81;100118.09;5112998;28;20047;-60
2023/02/01 03:35:28;;;;;;;5.30;1.98;;;;;;;13.05;47.67;100115.66;5112938;28;20065;-59
2023/02/01 03:38:04;;;;;;;3.63;1.75;;;;;;;13.05;47.66;100118.34;5113366;28;20514;-60
2023/02/01 03:40:37;;;;;;;4.18;1.65;;;;;;;13.04;47.29;100116.63;5113052;28;20047;-60
2023/02/01 03:43:12;;;;;;;4.78;1.60;;;;;;;13.03;47.88;100120.28;5112767;28;20470;-59
2023/02/01 03:45:44;;;;;;;3.30;1.55;;;;;;;12.99;47.52;100116.09;5112812;28;20377;-59
2023/02/01 03:48:15;;;;;;;3.20;1.40;;;;;;;13.01;47.59;100116.81;5112624;28;20040;-58
2023/02/01 03:50:49;;;;;;;3.55;1.70;;;;;;;12.99;47.60;100124.13;5112768;28;20792;-58
2023/02/01 03:53:23;;;;;;;3.53;1.42;;;;;;;12.98;48.46;100118.88;5112661;28;20046;-58
2023/02/01 03:55:53;;;;;;;4.20;1.70;;;;;;;12.94;48.12;100109.38;5113076;28;20100;-58
2023/02/01 03:58:23;;;;;;;4.35;1.55;;;;;;;12.94;48.37;100112.91;5112557;28;20052;-60
2023/02/01 04:00:54;;;;;;;4.30;1.88;;;;;;;12.91;47.83;100105.06;5112531;28;20048;-57
2023/02/01 04:03:22;;;;;;;3.25;1.50;;;;;;;12.88;48.17;100107.97;5112463;28;20073;-58
2023/02/01 04:05:50;;;;;;;4.63;1.60;;;;;;;12.90;48.31;100112.25;5112521;28;20047;-57
2023/02/01 04:08:21;;;;;;;3.38;1.50;;;;;;;12.90;48.17;100109.56;5112347;28;20071;-58
2023/02/01 04:10:49;;;;;;;3.90;1.40;;;;;;;12.93;49.18;100108.50;5112260;28;20051;-58
2023/02/01 04:13:18;;;;;;;2.88;1.42;;;;;;;12.97;49.47;100110.00;5112519;28;20047;-59
2023/02/01 04:15:49;;;;;;;4.47;1.83;;;;;;;13.06;49.93;100114.69;5112293;28;20043;-58
2023/02/01 04:18:17;;;;;;;3.28;1.33;;;;;;;13.18;50.40;100112.94;5112275;28;20442;-58
2023/02/01 04:20:46;;;;;;;2.90;1.33;;;;;;;13.30;50.04;100113.88;5112248;28;20448;-58
2023/02/01 04:23:15;;;;;;;4.07;1.50;;;;;;;13.42;49.83;100088.88;5112247;28;20547;-60
2023/02/01 04:25:45;;;;;;;3.10;1.38;;;;;;;13.54;49.90;100104.03;5112149;28;20089;-59
2023/02/01 04:28:13;;;;;;;4.45;1.60;;;;;;;13.65;49.66;100101.41;5112204;28;20052;-58
2023/02/01 04:30:41;;;;;;;3.45;1.38;;;;;;;13.73;49.51;100099.00;5112206;28;20059;-59
2023/02/01 04:33:13;;;;;;;3.13;1.40;;;;;;;13.87;49.14;100111.34;5112475;28;20043;-59
2023/02/01 04:35:42;;;;;;;3.58;1.25;;;;;;;13.99;49.08;100102.41;5116440;28;20130;-60
2023/02/01 04:38:10;;;;;;;2.60;1.45;;;;;;;14.07;49.04;100104.47;5116411;28;20050;-59
2023/02/01 04:40:38;;;;;;;2.75;1.25;;;;;;;14.14;48.98;100113.75;5116486;28;20052;-60
2023/02/01 04:43:07;;;;;;;2.60;1.13;;;;;;;14.22;48.53;100114.00;5116300;28;20439;-59
2023/02/01 04:45:35;;;;;;;1.63;1.10;;;;;;;14.31;48.60;100132.09;5116410;28;20059;-60
2023/02/01 04:48:04;;;;;;;2.90;1.20;;;;;;;14.38;48.43;100120.84;5116099;28;20058;-57
2023/02/01 04:50:32;;;;;;;2.38;1.30;;;;;;;14.46;48.54;100129.19;5115998;28;20104;-60
2023/02/01 04:53:00;;;;;;;2.80;1.20;;;;;;;14.50;48.35;100126.19;5116025;28;20453;-59
2023/02/01 04:55:28;;;;;;;2.67;1.17;;;;;;;14.56;48.25;100122.13;5115965;28;20544;-59
2023/02/01 04:57:57;;;;;;;2.17;1.00;;;;;;;14.66;48.11;100120.44;5116066;28;20438;-58
2023/02/01 05:00:26;;;;;;;1.83;1.00;;;;;;;14.72;48.21;100128.00;5115907;28;20171;-60
2023/02/01 05:02:55;;;;;;;2.50;1.13;;;;;;;14.84;47.88;100135.09;5115799;28;20051;-59
2023/02/01 05:05:24;;;;;;;1.20;0.80;;;;;;;14.92;47.81;100126.41;5116069;28;20039;-59
2023/02/01 05:07:52;;;;;;;2.70;1.15;;;;;;;14.99;47.70;100129.47;5115766;28;20050;-58
2023/02/01 05:10:21;;;;;;;1.85;1.13;;;;;;;15.06;47.58;100133.38;5115598;28;20054;-58
2023/02/01 05:15:36;;;;;;;2.20;1.10;;;;;;;15.21;47.41;100129.44;5115701;28;20058;-59
2023/02/01 05:18:04;;;;;;;2.75;1.20;;;;;;;15.32;47.29;100145.53;5115661;28;20044;-59
2023/02/01 05:20:32;;;;;;;1.58;0.90;;;;;;;15.41;47.36;100155.53;5115594;28;20408;-59
2023/02/01 05:23:00;;;;;;;2.05;1.10;;;;;;;15.48;47.32;100152.34;5115491;28;20116;-59
2023/02/01 05:25:29;;;;;;;1.98;1.08;;;;;;;15.54;47.09;100150.03;5115516;28;20044;-59
2023/02/01 05:27:57;;;;;;;1.98;1.00;;;;;;;15.65;47.20;100144.66;5115412;28;20052;-59
2023/02/01 05:30:25;;;;;;;1.77;1.02;;;;;;;15.71;47.03;100148.66;5115436;28;20039;-58
2023/02/01 05:32:54;;;;;;;1.50;0.95;;;;;;;15.80;47.05;100147.03;5115206;28;20048;-59
2023/02/01 05:35:23;;;;;;;2.75;1.17;;;;;;;15.85;47.12;100145.69;5115360;28;20047;-59
2023/02/01 05:37:51;;;;;;;2.53;1.20;;;;;;;15.93;47.10;100139.66;5115164;28;20140;-59
2023/02/01 05:40:19;;;;;;;2.65;1.17;;;;;;;15.96;46.79;100134.00;5115141;28;20039;-59
2023/02/01 05:42:47;;;;;;;1.60;0.80;;;;;;;15.97;46.93;100138.41;5115001;28;20058;-59
2023/02/01 05:45:15;;;;;;;2.30;1.00;;;;;;;15.97;47.00;100144.63;5114999;28;20096;-58
2023/02/01 05:47:43;;;;;;;2.35;1.15;;;;;;;15.97;47.06;100152.72;5115016;28;20048;-60
2023/02/01 05:50:13;;;;;;;2.78;1.30;;;;;;;15.94;46.96;100144.91;5115030;28;20512;-59
2023/02/01 05:52:42;;;;;;;2.22;1.13;;;;;;;15.91;47.26;100149.66;5114748;28;20391;-59
2023/02/01 05:55:11;;;;;;;2.67;1.20;;;;;;;15.90;47.30;100158.72;5114890;28;20466;-59
2023/02/01 05:57:39;;;;;;;1.35;0.93;;;;;;;15.85;47.31;100158.28;5115218;28;20050;-59
2023/02/01 06:00:08;;;;;;;2.13;1.10;;;;;;;15.82;47.38;100153.97;5114574;28;20044;-59
2023/02/01 06:02:36;;;;;;;3.00;1.10;;;;;;;15.80;47.49;100149.72;5114526;28;20449;-57
2023/02/01 06:05:05;;;;;;;3.22;1.10;;;;;;;15.74;47.45;100151.09;5114477;28;20134;-59
2023/02/01 06:07:35;;;;;;;2.30;1.25;;;;;;;15.71;47.47;100152.19;5114544;28;20044;-58
2023/02/01 06:10:04;;;;;;;2.65;1.13;;;;;;;15.64;47.69;100158.22;5114365;28;20047;-59
2023/02/01 06:12:32;;;;;;;3.80;1.20;;;;;;;15.65;47.60;100151.88;5114337;28;20043;-59
2023/02/01 06:15:01;;;;;;;3.42;1.48;;;;;;;15.59;47.56;100149.63;5114331;28;20071;-59
2023/02/01 06:17:29;;;;;;;2.08;1.13;;;;;;;15.54;47.71;100166.16;5114496;28;20047;-60
2023/02/01 06:19:57;;;;;;;2.08;1.17;;;;;;;15.52;47.84;100183.38;5096416;28;20096;-59
2023/02/01 06:22:25;;;;;;;1.77;1.10;;;;;;;15.47;47.53;100189.13;5114161;28;20039;-60
2023/02/01 06:24:54;;;;;;;2.05;1.10;;;;;;;15.43;47.75;100191.19;5114269;28;20093;-59
2023/02/01 06:27:23;;;;;;;3.67;1.23;;;;;;;15.37;47.72;100191.72;5114196;28;20047;-59
2023/02/01 06:29:51;;;;;;;3.30;1.20;;;;;;;15.35;47.99;100191.00;5112971;28;20662;-59
2023/02/01 06:32:19;;;;;;;2.35;1.20;;;;;;;15.31;48.01;100185.97;5113261;28;20058;-59
2023/02/01 06:34:47;;;;;;;3.38;1.25;;;;;;;15.26;48.29;100194.44;5113216;28;20092;-60
2023/02/01 06:37:15;;;;;;;2.30;1.20;;;;;;;15.20;48.00;100199.44;5113141;28;20053;-60
2023/02/01 06:39:43;;;;;;;3.55;1.30;;;;;;;15.18;48.32;100199.56;5113227;28;20043;-59
2023/02/01 06:42:13;;;;;;;2.50;1.20;;;;;;;15.13;48.28;100215.16;5112938;28;20126;-60
2023/02/01 06:44:41;;;;;;;3.38;1.48;;;;;;;15.09;48.46;100211.03;5113406;28;20050;-59
2023/02/01 06:47:09;;;;;;;2.45;1.30;;;;;;;15.05;48.12;100205.03;5113509;28;20050;-60
2023/02/01 06:49:37;;;;;;;3.25;1.40;;;;;;;15.01;48.02;100202.72;5113334;28;20055;-59
2023/02/01 06:52:05;;;;;;;1.92;1.02;;;;;;;14.99;48.03;100199.31;5113549;28;20044;-59
2023/02/01 06:54:33;;;;;;;2.85;1.30;;;;;;;14.93;48.23;100197.94;5113845;28;20054;-59
2023/02/01 06:57:02;;;;;;;2.30;1.30;;;;;;;14.88;48.61;100206.38;5113002;28;20492;-60
2023/02/01 06:59:31;;;;;;;2.92;1.50;;;;;;;14.88;47.96;100211.75;5094984;28;20044;-59
2023/02/01 07:01:59;;;;;;;2.47;1.20;;;;;;;14.83;48.34;100200.50;5113859;28;20043;-59
2023/02/01 07:04:27;;;;;;;2.40;1.10;;;;;;;14.80;48.16;100203.44;5113715;28;20055;-59
2023/02/01 07:06:55;;;;;;;2.10;1.00;;;;;;;14.76;48.26;100199.28;5113812;28;20043;-58
2023/02/01 07:09:24;;;;;;;3.08;1.40;;;;;;;14.75;48.27;100197.56;5113932;28;20055;-58
2023/02/01 07:11:52;;;;;;;2.30;1.00;;;;;;;14.71;48.53;100188.06;5114411;28;20039;-59
2023/02/01 07:14:20;;;;;;;3.10;1.20;;;;;;;14.68;48.53;100193.66;5113710;28;20492;-58
2023/02/01 07:16:50;;;;;;;1.77;1.05;;;;;;;14.63;48.36;100185.09;5113336;28;20043;-59
2023/02/01 07:19:18;;;;;;;2.97;1.35;;;;;;;14.63;48.35;100190.47;5113288;28;20093;-60
2023/02/01 07:21:47;;;;;;;3.08;0.93;;;;;;;14.59;48.36;100195.25;5113153;28;20061;-61
2023/02/01 07:24:15;;;;;;;2.58;1.20;;;;;;;14.59;49.14;100200.59;5113194;28;20047;-60
2023/02/01 07:26:43;;;;;;;2.30;1.30;;;;;;;14.62;49.52;100194.13;5113155;28;20492;-59
2023/02/01 07:29:12;;;;;;;2.38;1.10;;;;;;;14.69;49.67;100206.13;5112950;28;20083;-58
2023/02/01 07:31:40;;;;;;;2.85;1.30;;;;;;;14.79;49.78;100207.09;5112810;28;20066;-60
2023/02/01 07:34:10;;;;;;;2.30;1.15;;;;;;;14.88;49.95;100211.75;5112854;28;20054;-59
2023/02/01 07:36:38;;;;;;;2.42;1.10;;;;;;;14.97;49.52;100206.63;5112912;28;20058;-59
2023/02/01 07:39:06;;;;;;;2.75;1.20;;;;;;;15.08;49.38;100212.88;5112823;28;20047;-59
2023/02/01 07:41:35;;;;;;;3.75;1.40;;;;;;;15.16;49.32;100215.81;5112764;28;20400;-61
2023/02/01 07:44:03;;;;;;;2.05;1.00;;;;;;;15.29;49.26;100226.41;5112656;28;20048;-59
2023/02/01 07:46:31;;;;;;;2.78;1.20;;;;;;;15.39;49.07;100215.78;5113013;28;20047;-60
2023/02/01 07:49:00;;;;;;;2.25;1.10;;;;;;;15.49;48.94;100232.00;5112569;28;20180;-59
2023/02/01 07:51:29;;;;;;;2.20;1.10;;;;;;;15.57;48.89;100222.34;5112681;28;20048;-59
2023/02/01 07:53:58;;;;;;;3.20;1.08;;;;;;;15.62;48.77;100230.06;5112518;28;20044;-59
2023/02/01 07:56:26;;;;;;;2.72;1.10;;;;;;;15.73;48.54;100227.38;5112367;28;20048;-59
2023/02/01 07:58:55;;;;;;;2.67;1.10;;;;;;;15.81;48.48;100227.56;5112444;28;20485;-60
2023/02/01 08:01:25;;;;;;;2.75;1.10;;;;;;;15.91;48.25;100227.66;5112384;28;20447;-61
2023/02/01 08:03:55;;;;;;;6.40;1.50;;;;;;;15.95;48.54;100216.53;5112409;28;20043;-60
2023/02/01 08:06:24;;;;;;;5.15;1.50;;;;;;;15.97;48.57;100225.34;5112237;28;20043;-59
2023/02/01 08:08:54;;;;;;;3.17;1.30;;;;;;;16.01;48.40;100225.91;5111193;28;20097;-58
2023/02/01 08:11:24;;;;;;;3.60;1.20;;;;;;;16.01;48.16;100226.78;5112078;28;20074;-58
2023/02/01 08:13:52;;;;;;;2.63;1.13;;;;;;;16.01;48.40;100234.84;5112200;28;20101;-58
2023/02/01 08:16:23;;;;;;;3.22;1.05;;;;;;;16.01;48.65;100242.06;5111917;28;20484;-58
2023/02/01 08:18:51;;;;;;;3.22;1.15;;;;;;;16.00;48.77;100243.06;5111959;28;20054;-59
2023/02/01 08:21:22;;;;;;;4.95;1.40;;;;;;;15.98;48.73;100239.63;5112071;28;20047;-58
2023/02/01 08:23:51;;;;;;;3.95;1.23;;;;;;;15.98;48.86;100245.03;5112186;28;20058;-57
2023/02/01 08:26:23;;;;;;;4.57;1.23;;;;;;;15.96;49.02;100241.59;5111277;28;20050;-59
2023/02/01 08:28:52;;;;;;;5.65;1.23;;;;;;;15.94;49.26;100255.19;5110297;28;20435;-58
2023/02/01 08:31:23;;;;;;;3.45;1.33;;;;;;;15.92;49.34;100267.03;5109863;28;20101;-59
2023/02/01 08:33:53;;;;;;;7.55;1.77;;;;;;;15.88;49.21;100263.75;5109819;28;20050;-60
2023/02/01 08:36:23;;;;;;;4.35;1.40;;;;;;;15.85;49.13;100265.84;5110201;28;20120;-59
2023/02/01 08:38:51;;;;;;;4.53;1.30;;;;;;;15.82;49.08;100272.31;5110187;28;20101;-60
2023/02/01 08:41:23;;;;;;;3.97;1.45;;;;;;;15.78;48.93;100276.25;5110199;28;20507;-59
2023/02/01 08:43:52;;;;;;;3.85;1.23;;;;;;;15.76;48.79;100278.22;5111487;28;20052;-59
2023/02/01 08:46:21;;;;;;;5.25;1.48;;;;;;;15.71;48.33;100269.66;5111938;28;20473;-59
2023/02/01 08:48:49;;;;;;;4.43;1.55;;;;;;;15.65;48.24;100260.25;5111747;28;20052;-59
2023/02/01 08:51:19;;;;;;;2.38;1.08;;;;;;;15.64;47.83;100268.47;5111737;28;20054;-59
2023/02/01 08:53:49;;;;;;;6.10;1.50;;;;;;;15.59;47.82;100270.63;5111968;28;20302;-59
2023/02/01 08:56:18;;;;;;;3.08;1.30;;;;;;;15.55;48.04;100261.09;5111808;28;20044;-59
2023/02/01 08:58:48;;;;;;;2.85;1.15;;;;;;;15.52;47.63;100261.31;5111791;28;20078;-58
2023/02/01 09:01:17;;;;;;;5.45;1.38;;;;;;;15.48;47.57;100257.19;5111714;28;20074;-58
2023/02/01 09:03:46;;;;;;;4.45;1.40;;;;;;;15.46;47.67;100255.47;5111753;28;20050;-58
2023/02/01 09:06:15;;;;;;;2.53;1.17;;;;;;;15.43;47.82;100255.72;5111754;28;20748;-58
2023/02/01 09:08:44;;;;;;;4.55;1.48;;;;;;;15.40;47.99;100261.34;5111549;28;20385;-58
2023/02/01 09:11:15;;;;;;;3.50;1.08;;;;;;;15.37;48.09;100256.22;5111618;28;20050;-58
2023/02/01 09:13:44;;;;;;;5.25;1.42;;;;;;;15.35;48.04;100250.13;5111390;28;20047;-58
2023/02/01 09:16:13;;;;;;;3.78;0.93;;;;;;;15.34;47.92;100247.53;5111252;28;20476;-59
2023/02/01 09:18:42;;;;;;;4.10;1.20;;;;;;;15.30;48.35;100246.94;5111515;27;20493;-59
2023/02/01 09:21:30;;;;;;;5.20;1.20;;;;;;;15.28;47.93;100246.19;5115347;28;20463;-61
2023/02/01 09:23:59;;;;;;;4.43;1.50;;;;;;;15.27;47.78;100260.63;5115433;28;20044;-58
2023/02/01 09:26:28;;;;;;;3.03;1.30;;;;;;;15.23;48.29;100253.75;5115191;28;20067;-58
2023/02/01 09:29:00;;;;;;;4.47;1.40;;;;;;;15.22;48.00;100251.19;5115232;28;20043;-58
2023/02/01 09:31:30;;;;;;;2.85;1.00;;;;;;;15.19;47.93;100255.00;5115380;28;20047;-58
2023/02/01 09:33:58;;;;;;;3.55;1.25;;;;;;;15.15;47.92;100240.06;5115415;28;20048;-59
2023/02/01 09:36:27;;;;;;;4.13;1.38;;;;;;;15.13;47.87;100240.19;5115203;28;20043;-58
2023/02/01 09:38:58;;;;;;;4.88;1.17;;;;;;;15.12;48.00;100245.69;5115153;28;20045;-59
2023/02/01 09:41:43;;;;;;;3.53;1.30;;;;;;;15.12;48.25;100253.75;5115059;28;20067;-58
2023/02/01 09:44:23;;;;;;;3.63;1.13;;;;;;;15.08;48.17;100266.59;5115147;28;20058;-59
2023/02/01 09:46:57;;;;;;;1.50;0.90;;;;;;;15.03;47.99;100270.59;5115156;28;20036;-59
2023/02/01 09:49:30;;;;;;;2.83;1.27;;;;;;;14.99;48.15;100261.94;5114983;28;20130;-58
2023/02/01 09:52:01;;;;;;;2.83;1.20;;;;;;;14.97;48.18;100257.66;5114865;28;20073;-57
2023/02/01 09:54:45;;;;;;;4.38;1.10;;;;;;;14.91;48.13;100247.41;5114759;28;20054;-59
2023/02/01 09:57:20;;;;;;;2.78;1.15;;;;;;;14.90;48.01;100251.91;5114918;28;20065;-58
2023/02/01 09:59:55;;;;;;;2.65;1.20;;;;;;;14.85;48.12;100237.97;5114594;28;20055;-58
2023/02/01 10:02:30;;;;;;;2.33;1.10;;;;;;;14.83;47.82;100238.09;5114754;28;20048;-58
2023/02/01 10:05:00;;;;;;;2.95;1.20;;;;;;;14.89;47.67;100217.97;5114619;28;20557;-58
2023/02/01 10:07:36;;;;;;;3.25;1.40;;;;;;;14.86;47.70;100212.81;5114488;28;20049;-60
2023/02/01 10:10:10;;;;;;;4.80;1.50;;;;;;;14.93;47.55;100221.28;5114313;28;20087;-57
2023/02/01 10:12:55;;;;;;;2.17;1.10;;;;;;;14.92;47.44;100233.84;5114639;28;20047;-59
2023/02/01 10:15:36;;;;;;;2.22;1.30;;;;;;;14.85;47.32;100200.38;5114572;28;20071;-58
2023/02/01 10:18:21;;;;;;;2.58;1.30;;;;;;;14.83;47.50;100197.81;5114492;28;20112;-58
2023/02/01 10:20:58;;;;;;;3.40;1.30;;;;;;;14.82;47.17;100198.81;5114334;28;20051;-58
2023/02/01 10:23:37;;;;;;;2.63;1.17;;;;;;;14.87;47.64;100193.09;5114259;28;20044;-58
2023/02/01 10:26:16;;;;;;;3.22;1.00;;;;;;;14.82;47.27;100171.94;5114273;28;20054;-57
2023/02/01 10:28:49;;;;;;;2.38;1.20;;;;;;;14.79;47.28;100174.88;5114230;28;20053;-58
2023/02/01 10:31:18;;;;;;;2.67;1.30;;;;;;;14.77;47.26;100184.03;5113310;28;20082;-58
2023/02/01 10:33:51;;;;;;;2.33;1.20;;;;;;;14.87;47.45;100180.50;5114223;28;20052;-58
2023/02/01 10:36:26;;;;;;;2.20;1.23;;;;;;;14.98;47.66;100189.53;5114066;28;20130;-59
2023/02/01 10:38:58;;;;;;;3.08;1.42;;;;;;;15.06;47.59;100187.13;5114398;28;20051;-60
2023/02/01 10:41:32;;;;;;;2.03;1.00;;;;;;;15.11;47.38;100182.22;5113926;28;20122;-59
2023/02/01 10:44:04;;;;;;;2.33;1.10;;;;;;;15.18;47.26;100178.06;5095546;28;20047;-59
2023/02/01 10:46:32;;;;;;;2.30;1.10;;;;;;;15.21;47.15;100188.56;5113870;28;20040;-58
2023/02/01 10:49:06;;;;;;;2.53;1.15;;;;;;;15.23;47.05;100181.22;5113949;28;20051;-58
2023/02/01 10:51:43;;;;;;;2.58;1.02;;;;;;;15.26;46.75;100181.00;5113757;28;20488;-58
2023/02/01 10:54:17;;;;;;;1.38;0.90;;;;;;;15.28;46.75;100170.97;5113650;28;20047;-57
2023/02/01 10:56:46;;;;;;;2.75;1.17;;;;;;;15.26;46.54;100167.56;5113718;28;20043;-59
2023/02/01 10:59:19;;;;;;;1.73;1.17;;;;;;;15.28;46.51;100162.91;5113593;28;20040;-59
2023/02/01 11:01:50;;;;;;;2.67;1.30;;;;;;;15.30;46.53;100157.41;5113567;28;20052;-60
2023/02/01 11:04:21;;;;;;;2.38;1.33;;;;;;;15.30;46.29;100152.88;5113512;28;20047;-57
2023/02/01 11:06:53;;;;;;;2.60;1.20;;;;;;;15.24;46.35;100142.63;5113530;28;20623;-58
2023/02/01 11:09:24;;;;;;;3.38;1.42;;;;;;;15.19;46.17;100144.84;5113349;28;20056;-59
2023/02/01 11:11:58;;;;;;;2.60;1.08;;;;;;;15.12;46.51;100130.19;5113393;28;20054;-59
2023/02/01 11:14:44;;;;;;;1.55;0.90;;;;;;;15.10;46.36;100140.22;5113744;28;20040;-58
2023/02/01 11:17:28;;;;;;;4.07;1.20;;;;;;;15.04;46.09;100125.44;5113075;28;20044;-60
2023/02/01 11:20:03;;;;;;;3.10;1.20;;;;;;;15.00;46.11;100123.97;5113211;28;20043;-60
2023/02/01 11:22:31;;;;;;;2.22;1.20;;;;;;;14.99;46.25;100126.78;5113107;28;20062;-59
2023/02/01 11:25:02;;;;;;;2.90;1.33;;;;;;;14.90;46.35;100123.00;5113091;28;20221;-59
2023/02/01 11:27:30;;;;;;;3.15;1.42;;;;;;;14.88;46.03;100120.44;5112986;28;20112;-59
2023/02/01 11:30:04;;;;;;;1.85;1.10;;;;;;;14.85;46.17;100125.19;5112934;28;20043;-58
2023/02/01 11:32:35;;;;;;;3.50;1.65;;;;;;;14.82;46.10;100131.66;5112953;28;20400;-60
2023/02/01 11:35:07;;;;;;;2.97;1.50;;;;;;;14.81;46.19;100129.13;5112973;28;20096;-59
2023/02/01 11:37:39;;;;;;;2.92;1.52;;;;;;;14.76;46.10;100125.94;5112994;28;20450;-59
2023/02/01 11:40:28;;;;;;;4.28;1.63;;;;;;;14.69;46.35;100136.31;5112770;28;20035;-59
2023/02/01 11:42:59;;;;;;;2.92;1.52;;;;;;;14.67;46.59;100127.53;5112666;28;20046;-59
2023/02/01 11:45:29;;;;;;;2.60;1.50;;;;;;;14.62;46.82;100127.03;5112844;28;20081;-59
2023/02/01 11:48:00;;;;;;;2.83;1.60;;;;;;;14.56;47.00;100128.34;5112572;28;20122;-59
2023/02/01 11:50:38;;;;;;;2.38;1.33;;;;;;;14.54;46.97;100124.09;5112521;28;20044;-59
2023/02/01 11:53:31;;;;;;;3.40;1.50;;;;;;;14.50;47.46;100114.59;5112550;28;20116;-60
2023/02/01 11:56:17;;;;;;;2.22;1.40;;;;;;;14.47;47.47;100104.06;5112652;28;20488;-58
2023/02/01 11:59:20;;;;;;;3.05;1.40;;;;;;;14.44;47.35;100093.56;5112485;28;20793;-58
2023/02/01 12:02:10;;;;;;;2.63;1.20;;;;;;;14.38;47.38;100091.34;5112479;28;20062;-57
2023/02/01 12:05:08;;;;;;;3.47;1.50;;;;;;;14.38;47.62;100088.66;5112456;28;20059;-57
2023/02/01 12:07:54;;;;;;;2.95;1.60;;;;;;;14.35;47.98;100080.84;5112450;28;20126;-59